sensor_id;sensor_type;location;lat;lon;timestamp;P1;P2;P0
23240;PMS7003;11789;53.482;9.862;2024-01-30T00:00:35;36.33;32.33;24.00
23240;PMS7003;11789;53.482;9.862;2024-01-30T00:03:00;41.00;36.00;24.00
23240;PMS7003;11789;53.482;9.862;2024-01-30T00:05:26;36.67;32.33;24.00
23240;PMS7003;11789;53.482;9.862;2024-01-30T00:07:51;36.00;34.33;22.67
23240;PMS7003;11789;53.482;9.862;2024-01-30T00:10:17;37.00;36.00;24.00
23240;PMS7003;11789;53.482;9.862;2024-01-30T00:12:42;34.00;30.67;23.67
23240;PMS7003;11789;53.482;9.862;2024-01-30T00:15:08;42.00;36.00;21.33
23240;PMS7003;11789;53.482;9.862;2024-01-30T00:17:35;39.33;34.33;24.00
23240;PMS7003;11789;53.482;9.862;2024-01-30T00:20:02;40.67;36.67;24.00
23240;PMS7003;11789;53.482;9.862;2024-01-30T00:22:30;39.00;35.33;24.00
23240;PMS7003;11789;53.482;9.862;2024-01-30T00:24:56;31.33;28.33;19.00
23240;PMS7003;11789;53.482;9.862;2024-01-30T00:27:22;36.67;34.00;23.67
23240;PMS7003;11789;53.482;9.862;2024-01-30T00:29:47;41.67;35.33;24.00
23240;PMS7003;11789;53.482;9.862;2024-01-30T00:32:13;33.67;32.00;22.00
23240;PMS7003;11789;53.482;9.862;2024-01-30T00:34:38;36.00;33.67;22.67
23240;PMS7003;11789;53.482;9.862;2024-01-30T00:37:04;39.33;36.00;24.00
23240;PMS7003;11789;53.482;9.862;2024-01-30T00:39:29;40.00;36.67;24.00
23240;PMS7003;11789;53.482;9.862;2024-01-30T00:41:54;38.67;33.67;24.33
23240;PMS7003;11789;53.482;9.862;2024-01-30T00:44:20;47.33;39.67;24.00
23240;PMS7003;11789;53.482;9.862;2024-01-30T00:46:45;37.00;35.00;24.67
23240;PMS7003;11789;53.482;9.862;2024-01-30T00:49:11;41.00;36.00;25.00
23240;PMS7003;11789;53.482;9.862;2024-01-30T00:51:36;41.33;35.67;23.33
23240;PMS7003;11789;53.482;9.862;2024-01-30T00:54:02;43.33;38.33;25.67
23240;PMS7003;11789;53.482;9.862;2024-01-30T00:56:28;43.67;35.67;25.00
23240;PMS7003;11789;53.482;9.862;2024-01-30T00:58:53;43.00;38.33;24.33
23240;PMS7003;11789;53.482;9.862;2024-01-30T01:01:19;38.33;36.00;24.67
23240;PMS7003;11789;53.482;9.862;2024-01-30T01:03:45;42.67;36.00;24.00
23240;PMS7003;11789;53.482;9.862;2024-01-30T01:06:10;41.00;35.33;24.00
23240;PMS7003;11789;53.482;9.862;2024-01-30T01:08:36;38.33;34.67;23.00
23240;PMS7003;11789;53.482;9.862;2024-01-30T01:11:01;37.67;35.00;22.00
23240;PMS7003;11789;53.482;9.862;2024-01-30T01:13:28;40.33;36.00;24.00
23240;PMS7003;11789;53.482;9.862;2024-01-30T01:15:54;36.67;35.00;24.67
23240;PMS7003;11789;53.482;9.862;2024-01-30T01:18:20;44.33;36.00;24.00
23240;PMS7003;11789;53.482;9.862;2024-01-30T01:20:45;44.33;37.67;23.67
23240;PMS7003;11789;53.482;9.862;2024-01-30T01:23:11;37.00;33.67;24.00
23240;PMS7003;11789;53.482;9.862;2024-01-30T01:25:36;41.00;32.67;21.00
23240;PMS7003;11789;53.482;9.862;2024-01-30T01:28:02;38.00;36.00;24.00
23240;PMS7003;11789;53.482;9.862;2024-01-30T01:30:28;38.67;35.67;24.00
23240;PMS7003;11789;53.482;9.862;2024-01-30T01:32:54;34.00;32.33;20.00
23240;PMS7003;11789;53.482;9.862;2024-01-30T01:35:23;33.00;33.00;23.00
23240;PMS7003;11789;53.482;9.862;2024-01-30T01:37:52;35.33;33.33;23.67
23240;PMS7003;11789;53.482;9.862;2024-01-30T01:40:26;38.33;35.00;24.00
23240;PMS7003;11789;53.482;9.862;2024-01-30T01:42:53;38.00;35.67;23.67
23240;PMS7003;11789;53.482;9.862;2024-01-30T01:45:20;38.00;35.00;23.33
23240;PMS7003;11789;53.482;9.862;2024-01-30T01:47:52;43.00;36.00;24.00
23240;PMS7003;11789;53.482;9.862;2024-01-30T01:50:18;39.00;34.67;23.67
23240;PMS7003;11789;53.482;9.862;2024-01-30T01:52:50;35.00;32.67;24.00
23240;PMS7003;11789;53.482;9.862;2024-01-30T01:55:16;42.67;35.67;24.67
23240;PMS7003;11789;53.482;9.862;2024-01-30T01:57:46;35.67;26.67;18.33
23240;PMS7003;11789;53.482;9.862;2024-01-30T02:00:12;34.33;34.33;23.00
23240;PMS7003;11789;53.482;9.862;2024-01-30T02:02:38;33.67;31.00;19.00
23240;PMS7003;11789;53.482;9.862;2024-01-30T02:05:04;42.00;35.67;24.00
23240;PMS7003;11789;53.482;9.862;2024-01-30T02:07:30;35.67;32.67;21.33
23240;PMS7003;11789;53.482;9.862;2024-01-30T02:09:55;35.67;31.00;24.00
23240;PMS7003;11789;53.482;9.862;2024-01-30T02:12:21;44.00;36.00;24.00
23240;PMS7003;11789;53.482;9.862;2024-01-30T02:14:47;36.67;34.67;22.33
23240;PMS7003;11789;53.482;9.862;2024-01-30T02:17:13;40.33;36.67;24.33
23240;PMS7003;11789;53.482;9.862;2024-01-30T02:19:39;40.00;35.33;24.00
23240;PMS7003;11789;53.482;9.862;2024-01-30T02:22:05;35.33;27.33;19.33
23240;PMS7003;11789;53.482;9.862;2024-01-30T02:24:31;36.33;31.00;20.00
23240;PMS7003;11789;53.482;9.862;2024-01-30T02:26:56;37.00;33.00;24.00
23240;PMS7003;11789;53.482;9.862;2024-01-30T02:29:22;34.67;34.67;24.00
23240;PMS7003;11789;53.482;9.862;2024-01-30T02:31:47;35.67;34.33;24.00
23240;PMS7003;11789;53.482;9.862;2024-01-30T02:34:13;37.67;36.00;24.00
23240;PMS7003;11789;53.482;9.862;2024-01-30T02:36:42;30.00;28.67;20.67
23240;PMS7003;11789;53.482;9.862;2024-01-30T02:39:08;37.00;31.33;22.67
23240;PMS7003;11789;53.482;9.862;2024-01-30T02:41:33;32.33;32.33;24.00
23240;PMS7003;11789;53.482;9.862;2024-01-30T02:43:59;40.33;36.00;23.33
23240;PMS7003;11789;53.482;9.862;2024-01-30T02:46:24;38.33;34.33;24.00
23240;PMS7003;11789;53.482;9.862;2024-01-30T02:48:50;39.00;33.33;23.33
23240;PMS7003;11789;53.482;9.862;2024-01-30T02:51:15;43.00;36.00;24.00
23240;PMS7003;11789;53.482;9.862;2024-01-30T02:53:40;35.00;31.00;21.33
23240;PMS7003;11789;53.482;9.862;2024-01-30T02:56:06;40.00;31.33;22.00
23240;PMS7003;11789;53.482;9.862;2024-01-30T02:58:34;32.67;30.33;23.33
23240;PMS7003;11789;53.482;9.862;2024-01-30T03:01:01;37.00;32.67;22.00
23240;PMS7003;11789;53.482;9.862;2024-01-30T03:03:26;35.33;31.33;22.33
23240;PMS7003;11789;53.482;9.862;2024-01-30T03:05:51;35.67;32.33;20.00
23240;PMS7003;11789;53.482;9.862;2024-01-30T03:08:17;34.00;30.33;21.67
23240;PMS7003;11789;53.482;9.862;2024-01-30T03:10:42;30.00;29.00;19.67
23240;PMS7003;11789;53.482;9.862;2024-01-30T03:13:08;32.67;28.67;19.00
23240;PMS7003;11789;53.482;9.862;2024-01-30T03:15:33;34.67;34.00;23.33
23240;PMS7003;11789;53.482;9.862;2024-01-30T03:17:58;36.67;29.00;23.00
23240;PMS7003;11789;53.482;9.862;2024-01-30T03:20:24;30.00;30.00;22.67
23240;PMS7003;11789;53.482;9.862;2024-01-30T03:22:49;40.33;33.33;21.33
23240;PMS7003;11789;53.482;9.862;2024-01-30T03:25:15;34.67;29.67;21.00
23240;PMS7003;11789;53.482;9.862;2024-01-30T03:27:40;30.33;30.00;23.00
23240;PMS7003;11789;53.482;9.862;2024-01-30T03:30:06;32.67;29.00;21.00
23240;PMS7003;11789;53.482;9.862;2024-01-30T03:32:32;29.67;27.67;19.33
23240;PMS7003;11789;53.482;9.862;2024-01-30T03:34:57;34.00;31.00;19.00
23240;PMS7003;11789;53.482;9.862;2024-01-30T03:37:23;33.00;31.00;23.00
23240;PMS7003;11789;53.482;9.862;2024-01-30T03:39:49;34.67;30.33;19.00
23240;PMS7003;11789;53.482;9.862;2024-01-30T03:42:14;32.33;27.00;20.33
23240;PMS7003;11789;53.482;9.862;2024-01-30T03:44:39;34.67;32.67;20.00
23240;PMS7003;11789;53.482;9.862;2024-01-30T03:47:05;31.67;31.33;22.33
23240;PMS7003;11789;53.482;9.862;2024-01-30T03:49:30;33.67;28.33;20.00
23240;PMS7003;11789;53.482;9.862;2024-01-30T03:51:56;30.33;26.00;19.33
23240;PMS7003;11789;53.482;9.862;2024-01-30T03:54:21;33.67;33.33;21.33
23240;PMS7003;11789;53.482;9.862;2024-01-30T03:56:46;38.00;33.00;23.00
23240;PMS7003;11789;53.482;9.862;2024-01-30T03:59:12;32.33;27.67;19.00
23240;PMS7003;11789;53.482;9.862;2024-01-30T04:01:37;32.33;28.67;19.33
23240;PMS7003;11789;53.482;9.862;2024-01-30T04:04:03;33.33;32.00;23.00
23240;PMS7003;11789;53.482;9.862;2024-01-30T04:06:28;34.67;33.67;21.33
23240;PMS7003;11789;53.482;9.862;2024-01-30T04:08:54;35.00;30.33;21.33
23240;PMS7003;11789;53.482;9.862;2024-01-30T04:11:19;32.67;31.00;21.33
23240;PMS7003;11789;53.482;9.862;2024-01-30T04:13:45;42.67;32.33;22.00
23240;PMS7003;11789;53.482;9.862;2024-01-30T04:16:19;33.33;31.67;22.00
23240;PMS7003;11789;53.482;9.862;2024-01-30T04:18:45;32.67;29.00;21.00
23240;PMS7003;11789;53.482;9.862;2024-01-30T04:21:11;25.67;25.67;20.00
23240;PMS7003;11789;53.482;9.862;2024-01-30T04:23:36;30.67;28.67;20.67
23240;PMS7003;11789;53.482;9.862;2024-01-30T04:26:01;35.00;28.00;19.67
23240;PMS7003;11789;53.482;9.862;2024-01-30T04:28:28;35.67;31.67;22.67
23240;PMS7003;11789;53.482;9.862;2024-01-30T04:30:54;33.67;29.67;21.33
23240;PMS7003;11789;53.482;9.862;2024-01-30T04:33:19;29.67;28.67;22.00
23240;PMS7003;11789;53.482;9.862;2024-01-30T04:35:44;32.67;29.33;19.67
23240;PMS7003;11789;53.482;9.862;2024-01-30T04:38:10;32.33;30.00;22.00
23240;PMS7003;11789;53.482;9.862;2024-01-30T04:40:35;32.33;28.33;18.33
23240;PMS7003;11789;53.482;9.862;2024-01-30T04:43:01;33.00;31.00;22.33
23240;PMS7003;11789;53.482;9.862;2024-01-30T04:45:26;26.67;25.00;19.67
23240;PMS7003;11789;53.482;9.862;2024-01-30T04:47:52;34.33;30.33;20.67
23240;PMS7003;11789;53.482;9.862;2024-01-30T04:50:17;34.67;31.67;22.00
23240;PMS7003;11789;53.482;9.862;2024-01-30T04:52:43;39.33;33.67;22.00
23240;PMS7003;11789;53.482;9.862;2024-01-30T04:55:09;32.00;32.00;21.67
23240;PMS7003;11789;53.482;9.862;2024-01-30T04:57:34;31.00;28.00;19.00
23240;PMS7003;11789;53.482;9.862;2024-01-30T04:59:59;33.67;29.67;23.00
23240;PMS7003;11789;53.482;9.862;2024-01-30T05:02:25;34.33;30.67;22.67
23240;PMS7003;11789;53.482;9.862;2024-01-30T05:04:51;35.00;29.33;19.67
23240;PMS7003;11789;53.482;9.862;2024-01-30T05:07:16;38.33;31.00;23.00
23240;PMS7003;11789;53.482;9.862;2024-01-30T05:09:42;35.33;34.33;22.00
23240;PMS7003;11789;53.482;9.862;2024-01-30T05:12:07;33.33;32.67;22.33
23240;PMS7003;11789;53.482;9.862;2024-01-30T05:14:33;31.33;29.00;23.00
23240;PMS7003;11789;53.482;9.862;2024-01-30T05:16:58;29.33;29.33;20.00
23240;PMS7003;11789;53.482;9.862;2024-01-30T05:19:24;38.67;32.00;22.00
23240;PMS7003;11789;53.482;9.862;2024-01-30T05:21:49;25.00;24.00;16.00
23240;PMS7003;11789;53.482;9.862;2024-01-30T05:24:15;29.33;27.33;19.67
23240;PMS7003;11789;53.482;9.862;2024-01-30T05:26:40;38.00;32.33;22.00
23240;PMS7003;11789;53.482;9.862;2024-01-30T05:29:06;36.67;33.33;21.33
23240;PMS7003;11789;53.482;9.862;2024-01-30T05:31:33;34.33;31.33;24.00
23240;PMS7003;11789;53.482;9.862;2024-01-30T05:33:59;37.33;32.67;22.00
23240;PMS7003;11789;53.482;9.862;2024-01-30T05:36:25;34.33;32.00;19.00
23240;PMS7003;11789;53.482;9.862;2024-01-30T05:38:50;36.33;33.00;23.00
23240;PMS7003;11789;53.482;9.862;2024-01-30T05:41:16;43.00;33.67;23.33
23240;PMS7003;11789;53.482;9.862;2024-01-30T05:43:41;36.67;32.33;21.00
23240;PMS7003;11789;53.482;9.862;2024-01-30T05:46:07;33.00;30.00;22.67
23240;PMS7003;11789;53.482;9.862;2024-01-30T05:48:32;35.00;32.67;22.00
23240;PMS7003;11789;53.482;9.862;2024-01-30T05:50:58;36.00;31.33;22.67
23240;PMS7003;11789;53.482;9.862;2024-01-30T05:53:25;38.33;36.33;24.33
23240;PMS7003;11789;53.482;9.862;2024-01-30T05:55:50;32.67;31.33;23.67
23240;PMS7003;11789;53.482;9.862;2024-01-30T05:58:16;32.67;32.33;21.67
23240;PMS7003;11789;53.482;9.862;2024-01-30T06:00:41;35.33;33.00;23.67
23240;PMS7003;11789;53.482;9.862;2024-01-30T06:03:07;37.33;37.00;23.00
23240;PMS7003;11789;53.482;9.862;2024-01-30T06:05:32;38.67;32.33;24.00
23240;PMS7003;11789;53.482;9.862;2024-01-30T06:07:58;33.67;33.67;23.67
23240;PMS7003;11789;53.482;9.862;2024-01-30T06:10:23;34.00;27.00;16.67
23240;PMS7003;11789;53.482;9.862;2024-01-30T06:12:49;32.33;31.00;19.67
23240;PMS7003;11789;53.482;9.862;2024-01-30T06:15:14;43.67;34.00;23.00
23240;PMS7003;11789;53.482;9.862;2024-01-30T06:17:40;38.00;33.33;22.33
23240;PMS7003;11789;53.482;9.862;2024-01-30T06:20:05;37.00;31.67;22.67
23240;PMS7003;11789;53.482;9.862;2024-01-30T06:22:31;33.67;32.67;22.00
23240;PMS7003;11789;53.482;9.862;2024-01-30T06:24:57;36.00;34.00;22.67
23240;PMS7003;11789;53.482;9.862;2024-01-30T06:27:22;40.67;33.67;22.00
23240;PMS7003;11789;53.482;9.862;2024-01-30T06:29:48;37.67;36.00;23.00
23240;PMS7003;11789;53.482;9.862;2024-01-30T06:32:13;34.00;33.00;22.00
23240;PMS7003;11789;53.482;9.862;2024-01-30T06:34:38;34.00;33.00;23.67
23240;PMS7003;11789;53.482;9.862;2024-01-30T06:37:06;34.00;32.00;21.33
23240;PMS7003;11789;53.482;9.862;2024-01-30T06:39:31;36.67;33.33;18.67
23240;PMS7003;11789;53.482;9.862;2024-01-30T06:41:57;35.00;30.67;21.33
23240;PMS7003;11789;53.482;9.862;2024-01-30T06:44:22;32.33;32.33;22.00
23240;PMS7003;11789;53.482;9.862;2024-01-30T06:46:48;37.00;29.33;19.67
23240;PMS7003;11789;53.482;9.862;2024-01-30T06:49:13;36.67;33.67;23.33
23240;PMS7003;11789;53.482;9.862;2024-01-30T06:51:38;34.33;32.00;23.00
23240;PMS7003;11789;53.482;9.862;2024-01-30T06:54:04;34.00;31.33;23.00
23240;PMS7003;11789;53.482;9.862;2024-01-30T06:56:30;31.33;29.33;21.00
23240;PMS7003;11789;53.482;9.862;2024-01-30T06:58:55;31.33;29.33;20.33
23240;PMS7003;11789;53.482;9.862;2024-01-30T07:01:21;39.67;35.67;22.00
23240;PMS7003;11789;53.482;9.862;2024-01-30T07:03:52;35.67;32.00;19.33
23240;PMS7003;11789;53.482;9.862;2024-01-30T07:06:18;35.00;31.33;22.67
23240;PMS7003;11789;53.482;9.862;2024-01-30T07:08:45;32.33;29.00;19.33
23240;PMS7003;11789;53.482;9.862;2024-01-30T07:11:10;35.33;34.00;23.00
23240;PMS7003;11789;53.482;9.862;2024-01-30T07:13:37;41.33;37.00;23.67
23240;PMS7003;11789;53.482;9.862;2024-01-30T07:16:02;35.33;32.00;22.00
23240;PMS7003;11789;53.482;9.862;2024-01-30T07:18:28;35.33;31.33;21.33
23240;PMS7003;11789;53.482;9.862;2024-01-30T07:20:54;29.67;27.33;18.00
23240;PMS7003;11789;53.482;9.862;2024-01-30T07:23:19;42.33;33.00;21.00
23240;PMS7003;11789;53.482;9.862;2024-01-30T07:25:45;34.00;32.33;22.00
23240;PMS7003;11789;53.482;9.862;2024-01-30T07:28:10;39.67;36.33;23.67
23240;PMS7003;11789;53.482;9.862;2024-01-30T07:30:37;37.00;35.00;22.67
23240;PMS7003;11789;53.482;9.862;2024-01-30T07:33:03;39.33;31.00;21.33
23240;PMS7003;11789;53.482;9.862;2024-01-30T07:35:28;36.33;33.33;22.67
23240;PMS7003;11789;53.482;9.862;2024-01-30T07:37:54;36.33;34.00;24.00
23240;PMS7003;11789;53.482;9.862;2024-01-30T07:40:19;38.00;34.33;23.33
23240;PMS7003;11789;53.482;9.862;2024-01-30T07:42:45;39.00;37.33;24.00
23240;PMS7003;11789;53.482;9.862;2024-01-30T07:45:10;38.33;36.00;24.00
23240;PMS7003;11789;53.482;9.862;2024-01-30T07:47:36;50.67;35.00;23.67
23240;PMS7003;11789;53.482;9.862;2024-01-30T07:50:01;39.00;35.33;22.33
23240;PMS7003;11789;53.482;9.862;2024-01-30T07:52:27;37.67;34.00;24.00
23240;PMS7003;11789;53.482;9.862;2024-01-30T07:54:52;37.00;36.00;24.00
23240;PMS7003;11789;53.482;9.862;2024-01-30T08:03:52;37.33;34.67;24.00
23240;PMS7003;11789;53.482;9.862;2024-01-30T08:06:18;41.67;36.00;24.00
23240;PMS7003;11789;53.482;9.862;2024-01-30T08:08:43;40.67;33.33;24.00
23240;PMS7003;11789;53.482;9.862;2024-01-30T08:11:09;41.00;37.00;24.00
23240;PMS7003;11789;53.482;9.862;2024-01-30T08:13:34;36.67;33.00;22.33
23240;PMS7003;11789;53.482;9.862;2024-01-30T08:15:59;39.00;36.33;22.33
23240;PMS7003;11789;53.482;9.862;2024-01-30T08:18:25;42.67;34.00;23.33
23240;PMS7003;11789;53.482;9.862;2024-01-30T08:20:51;37.33;35.67;22.33
23240;PMS7003;11789;53.482;9.862;2024-01-30T08:23:16;40.67;35.33;22.67
23240;PMS7003;11789;53.482;9.862;2024-01-30T08:25:42;42.00;36.00;24.33
23240;PMS7003;11789;53.482;9.862;2024-01-30T08:28:07;34.67;32.00;21.00
23240;PMS7003;11789;53.482;9.862;2024-01-30T08:30:33;46.33;37.67;23.33
23240;PMS7003;11789;53.482;9.862;2024-01-30T08:32:58;47.33;39.67;26.00
23240;PMS7003;11789;53.482;9.862;2024-01-30T08:35:24;44.67;38.00;24.33
23240;PMS7003;11789;53.482;9.862;2024-01-30T08:37:49;36.33;31.67;23.33
23240;PMS7003;11789;53.482;9.862;2024-01-30T08:40:15;46.67;38.33;26.00
23240;PMS7003;11789;53.482;9.862;2024-01-30T08:42:40;45.33;37.33;27.00
23240;PMS7003;11789;53.482;9.862;2024-01-30T08:45:06;42.00;35.33;24.67
23240;PMS7003;11789;53.482;9.862;2024-01-30T08:47:31;51.67;39.00;24.67
23240;PMS7003;11789;53.482;9.862;2024-01-30T08:49:58;40.33;37.33;23.00
23240;PMS7003;11789;53.482;9.862;2024-01-30T08:52:23;52.33;40.33;24.67
23240;PMS7003;11789;53.482;9.862;2024-01-30T08:54:49;37.33;36.33;23.67
23240;PMS7003;11789;53.482;9.862;2024-01-30T08:57:14;43.33;37.67;25.00
23240;PMS7003;11789;53.482;9.862;2024-01-30T08:59:40;41.33;35.67;25.00
23240;PMS7003;11789;53.482;9.862;2024-01-30T09:02:05;40.67;36.33;24.33
23240;PMS7003;11789;53.482;9.862;2024-01-30T09:04:31;39.00;36.67;24.33
23240;PMS7003;11789;53.482;9.862;2024-01-30T09:06:56;41.33;37.00;24.00
23240;PMS7003;11789;53.482;9.862;2024-01-30T09:09:22;38.67;36.33;24.00
23240;PMS7003;11789;53.482;9.862;2024-01-30T09:11:47;42.33;35.67;24.00
23240;PMS7003;11789;53.482;9.862;2024-01-30T09:14:13;44.33;34.00;22.67
23240;PMS7003;11789;53.482;9.862;2024-01-30T09:16:38;38.00;34.00;22.33
23240;PMS7003;11789;53.482;9.862;2024-01-30T09:19:04;39.67;35.33;23.67
23240;PMS7003;11789;53.482;9.862;2024-01-30T09:21:29;39.33;35.67;24.33
23240;PMS7003;11789;53.482;9.862;2024-01-30T09:23:55;35.67;26.67;21.00
23240;PMS7003;11789;53.482;9.862;2024-01-30T09:26:29;40.33;36.33;25.00
23240;PMS7003;11789;53.482;9.862;2024-01-30T09:28:54;42.33;34.00;22.33
23240;PMS7003;11789;53.482;9.862;2024-01-30T09:31:20;35.67;31.67;20.67
23240;PMS7003;11789;53.482;9.862;2024-01-30T09:33:45;40.33;36.00;25.00
23240;PMS7003;11789;53.482;9.862;2024-01-30T09:36:13;43.00;35.67;22.33
23240;PMS7003;11789;53.482;9.862;2024-01-30T09:38:40;42.33;35.00;22.67
23240;PMS7003;11789;53.482;9.862;2024-01-30T09:41:07;47.33;36.33;22.67
23240;PMS7003;11789;53.482;9.862;2024-01-30T09:43:36;57.67;46.33;27.33
23240;PMS7003;11789;53.482;9.862;2024-01-30T09:46:03;54.00;42.33;25.67
23240;PMS7003;11789;53.482;9.862;2024-01-30T09:48:31;37.67;34.33;22.00
23240;PMS7003;11789;53.482;9.862;2024-01-30T09:50:58;36.33;33.00;22.00
23240;PMS7003;11789;53.482;9.862;2024-01-30T09:53:24;36.25;30.50;21.50
23240;PMS7003;11789;53.482;9.862;2024-01-30T09:55:50;42.50;35.75;22.50
23240;PMS7003;11789;53.482;9.862;2024-01-30T09:58:16;32.00;30.00;21.50
23240;PMS7003;11789;53.482;9.862;2024-01-30T10:00:42;30.00;26.75;17.75
23240;PMS7003;11789;53.482;9.862;2024-01-30T10:03:08;33.00;29.25;21.00
23240;PMS7003;11789;53.482;9.862;2024-01-30T10:05:34;36.50;31.00;21.50
23240;PMS7003;11789;53.482;9.862;2024-01-30T10:08:05;29.75;28.00;18.75
23240;PMS7003;11789;53.482;9.862;2024-01-30T10:10:31;33.25;30.75;21.25
23240;PMS7003;11789;53.482;9.862;2024-01-30T10:12:56;34.67;33.67;23.33
23240;PMS7003;11789;53.482;9.862;2024-01-30T10:15:22;30.25;28.50;21.00
23240;PMS7003;11789;53.482;9.862;2024-01-30T10:17:47;31.75;31.75;20.75
23240;PMS7003;11789;53.482;9.862;2024-01-30T10:20:13;34.50;30.50;21.00
23240;PMS7003;11789;53.482;9.862;2024-01-30T10:22:39;33.50;27.25;19.00
23240;PMS7003;11789;53.482;9.862;2024-01-30T10:25:09;31.25;29.50;20.25
23240;PMS7003;11789;53.482;9.862;2024-01-30T10:27:34;27.75;27.00;19.75
23240;PMS7003;11789;53.482;9.862;2024-01-30T10:30:00;31.75;27.00;18.75
23240;PMS7003;11789;53.482;9.862;2024-01-30T10:32:27;26.25;23.25;17.25
23240;PMS7003;11789;53.482;9.862;2024-01-30T10:34:52;37.25;30.25;20.50
23240;PMS7003;11789;53.482;9.862;2024-01-30T10:37:18;30.00;28.50;20.00
23240;PMS7003;11789;53.482;9.862;2024-01-30T10:39:45;29.00;25.50;18.00
23240;PMS7003;11789;53.482;9.862;2024-01-30T10:42:12;32.25;27.50;18.50
23240;PMS7003;11789;53.482;9.862;2024-01-30T10:47:21;30.25;29.75;18.00
23240;PMS7003;11789;53.482;9.862;2024-01-30T10:49:51;30.25;26.25;19.00
23240;PMS7003;11789;53.482;9.862;2024-01-30T10:52:19;31.75;27.50;18.00
23240;PMS7003;11789;53.482;9.862;2024-01-30T10:54:45;30.50;25.50;19.00
23240;PMS7003;11789;53.482;9.862;2024-01-30T10:57:12;36.25;28.00;18.00
23240;PMS7003;11789;53.482;9.862;2024-01-30T10:59:40;35.00;29.25;19.50
23240;PMS7003;11789;53.482;9.862;2024-01-30T11:02:07;27.50;26.75;19.25
23240;PMS7003;11789;53.482;9.862;2024-01-30T11:04:40;28.50;27.00;18.75
23240;PMS7003;11789;53.482;9.862;2024-01-30T11:07:16;33.25;28.75;18.00
23240;PMS7003;11789;53.482;9.862;2024-01-30T11:10:09;26.75;26.75;19.00
23240;PMS7003;11789;53.482;9.862;2024-01-30T11:12:38;31.50;29.00;18.75
23240;PMS7003;11789;53.482;9.862;2024-01-30T11:15:09;24.50;24.00;16.75
23240;PMS7003;11789;53.482;9.862;2024-01-30T11:20:22;26.50;25.00;18.00
23240;PMS7003;11789;53.482;9.862;2024-01-30T11:22:51;30.75;29.75;20.00
23240;PMS7003;11789;53.482;9.862;2024-01-30T11:25:19;31.75;28.00;17.75
23240;PMS7003;11789;53.482;9.862;2024-01-30T11:27:46;28.75;26.75;19.50
23240;PMS7003;11789;53.482;9.862;2024-01-30T11:30:25;33.50;31.75;21.75
23240;PMS7003;11789;53.482;9.862;2024-01-30T11:33:02;30.50;28.75;18.50
23240;PMS7003;11789;53.482;9.862;2024-01-30T11:35:34;30.25;25.75;18.50
23240;PMS7003;11789;53.482;9.862;2024-01-30T11:38:02;33.75;26.75;18.00
23240;PMS7003;11789;53.482;9.862;2024-01-30T11:40:28;35.50;31.00;20.25
23240;PMS7003;11789;53.482;9.862;2024-01-30T11:42:55;29.25;27.00;19.00
23240;PMS7003;11789;53.482;9.862;2024-01-30T11:45:21;27.25;27.25;19.25
23240;PMS7003;11789;53.482;9.862;2024-01-30T11:47:47;32.25;30.25;19.00
23240;PMS7003;11789;53.482;9.862;2024-01-30T11:50:13;29.75;29.75;20.00
23240;PMS7003;11789;53.482;9.862;2024-01-30T11:52:39;29.50;28.00;20.00
23240;PMS7003;11789;53.482;9.862;2024-01-30T11:55:05;30.50;29.75;21.00
23240;PMS7003;11789;53.482;9.862;2024-01-30T11:57:30;34.00;31.25;21.00
23240;PMS7003;11789;53.482;9.862;2024-01-30T11:59:56;31.50;28.50;19.50
23240;PMS7003;11789;53.482;9.862;2024-01-30T12:02:21;29.50;26.25;15.75
23240;PMS7003;11789;53.482;9.862;2024-01-30T12:04:47;36.75;33.75;23.00
23240;PMS7003;11789;53.482;9.862;2024-01-30T12:07:12;45.75;36.75;22.75
23240;PMS7003;11789;53.482;9.862;2024-01-30T12:09:41;31.25;28.50;19.25
23240;PMS7003;11789;53.482;9.862;2024-01-30T12:12:07;32.25;27.00;21.00
23240;PMS7003;11789;53.482;9.862;2024-01-30T12:14:37;27.75;26.00;19.00
23240;PMS7003;11789;53.482;9.862;2024-01-30T12:17:04;30.25;28.00;20.00
23240;PMS7003;11789;53.482;9.862;2024-01-30T12:19:30;40.00;35.00;22.50
23240;PMS7003;11789;53.482;9.862;2024-01-30T12:21:56;44.00;38.00;22.25
23240;PMS7003;11789;53.482;9.862;2024-01-30T12:24:22;43.50;35.00;22.25
23240;PMS7003;11789;53.482;9.862;2024-01-30T12:26:48;28.75;25.25;17.75
23240;PMS7003;11789;53.482;9.862;2024-01-30T12:29:14;31.50;27.50;18.50
23240;PMS7003;11789;53.482;9.862;2024-01-30T12:31:41;29.50;25.25;18.50
23240;PMS7003;11789;53.482;9.862;2024-01-30T12:34:07;31.25;25.50;18.50
23240;PMS7003;11789;53.482;9.862;2024-01-30T12:36:33;32.25;28.00;21.00
23240;PMS7003;11789;53.482;9.862;2024-01-30T12:38:59;29.00;27.25;20.00
23240;PMS7003;11789;53.482;9.862;2024-01-30T12:41:26;29.25;26.25;18.00
23240;PMS7003;11789;53.482;9.862;2024-01-30T12:43:54;30.25;27.00;19.00
23240;PMS7003;11789;53.482;9.862;2024-01-30T12:46:20;33.75;26.75;16.75
23240;PMS7003;11789;53.482;9.862;2024-01-30T12:48:45;28.00;27.00;18.75
23240;PMS7003;11789;53.482;9.862;2024-01-30T12:51:11;30.00;27.00;20.00
23240;PMS7003;11789;53.482;9.862;2024-01-30T12:53:36;29.00;27.00;18.50
23240;PMS7003;11789;53.482;9.862;2024-01-30T12:56:02;30.00;26.50;19.75
23240;PMS7003;11789;53.482;9.862;2024-01-30T12:58:28;25.00;23.00;17.25
23240;PMS7003;11789;53.482;9.862;2024-01-30T13:00:53;30.50;27.25;18.75
23240;PMS7003;11789;53.482;9.862;2024-01-30T13:03:19;31.75;30.75;21.00
23240;PMS7003;11789;53.482;9.862;2024-01-30T13:05:45;33.25;29.25;20.50
23240;PMS7003;11789;53.482;9.862;2024-01-30T13:08:10;28.75;27.75;19.00
23240;PMS7003;11789;53.482;9.862;2024-01-30T13:10:36;28.00;27.00;19.25
23240;PMS7003;11789;53.482;9.862;2024-01-30T13:13:01;29.25;27.25;19.50
23240;PMS7003;11789;53.482;9.862;2024-01-30T13:15:27;29.00;28.00;18.25
23240;PMS7003;11789;53.482;9.862;2024-01-30T13:17:53;33.00;31.00;20.75
23240;PMS7003;11789;53.482;9.862;2024-01-30T13:20:19;29.75;28.00;19.00
23240;PMS7003;11789;53.482;9.862;2024-01-30T13:22:48;32.75;28.75;19.50
23240;PMS7003;11789;53.482;9.862;2024-01-30T13:25:15;31.00;26.50;19.00
23240;PMS7003;11789;53.482;9.862;2024-01-30T13:27:41;33.50;29.50;21.00
23240;PMS7003;11789;53.482;9.862;2024-01-30T13:30:06;33.50;30.75;19.75
23240;PMS7003;11789;53.482;9.862;2024-01-30T13:32:34;27.25;27.25;19.00
23240;PMS7003;11789;53.482;9.862;2024-01-30T13:35:00;37.25;31.75;20.75
23240;PMS7003;11789;53.482;9.862;2024-01-30T13:37:25;27.25;26.25;18.25
23240;PMS7003;11789;53.482;9.862;2024-01-30T13:39:51;27.75;26.75;19.00
23240;PMS7003;11789;53.482;9.862;2024-01-30T13:42:16;28.00;26.00;18.75
23240;PMS7003;11789;53.482;9.862;2024-01-30T13:44:42;35.75;30.75;20.25
23240;PMS7003;11789;53.482;9.862;2024-01-30T13:47:09;31.25;28.25;19.50
23240;PMS7003;11789;53.482;9.862;2024-01-30T13:49:34;30.00;26.50;18.75
23240;PMS7003;11789;53.482;9.862;2024-01-30T13:52:00;30.50;29.25;18.50